sensor_id;sensor_type;location;lat;lon;timestamp;temperature;humidity
59961;DHT22;55902;-37.980;-63.602;2023-07-20T00:00:26;9.80;83.10
59961;DHT22;55902;-37.980;-63.602;2023-07-20T00:02:53;9.80;83.30
59961;DHT22;55902;-37.980;-63.602;2023-07-20T00:05:36;9.70;83.50
59961;DHT22;55902;-37.980;-63.602;2023-07-20T00:08:03;9.70;84.00
59961;DHT22;55902;-37.980;-63.602;2023-07-20T00:10:30;9.60;84.40
59961;DHT22;55902;-37.980;-63.602;2023-07-20T00:12:57;9.60;84.80
59961;DHT22;55902;-37.980;-63.602;2023-07-20T00:15:24;9.50;85.40
59961;DHT22;55902;-37.980;-63.602;2023-07-20T00:17:51;9.40;85.90
59961;DHT22;55902;-37.980;-63.602;2023-07-20T00:20:18;9.30;86.50
59961;DHT22;55902;-37.980;-63.602;2023-07-20T00:22:45;9.20;87.10
59961;DHT22;55902;-37.980;-63.602;2023-07-20T00:25:15;9.20;87.60
59961;DHT22;55902;-37.980;-63.602;2023-07-20T00:27:42;9.10;88.30
59961;DHT22;55902;-37.980;-63.602;2023-07-20T00:30:10;9.10;88.80
59961;DHT22;55902;-37.980;-63.602;2023-07-20T00:32:37;9.10;89.20
59961;DHT22;55902;-37.980;-63.602;2023-07-20T00:35:05;9.00;89.50
59961;DHT22;55902;-37.980;-63.602;2023-07-20T00:37:32;9.00;89.60
59961;DHT22;55902;-37.980;-63.602;2023-07-20T00:39:59;9.00;90.00
59961;DHT22;55902;-37.980;-63.602;2023-07-20T00:42:27;9.00;90.00
59961;DHT22;55902;-37.980;-63.602;2023-07-20T00:44:54;9.00;90.20
59961;DHT22;55902;-37.980;-63.602;2023-07-20T00:47:21;8.90;90.30
59961;DHT22;55902;-37.980;-63.602;2023-07-20T00:49:48;8.90;90.40
59961;DHT22;55902;-37.980;-63.602;2023-07-20T00:52:15;8.90;90.70
59961;DHT22;55902;-37.980;-63.602;2023-07-20T00:54:42;8.80;90.70
59961;DHT22;55902;-37.980;-63.602;2023-07-20T00:57:10;8.80;90.80
59961;DHT22;55902;-37.980;-63.602;2023-07-20T00:59:40;8.80;90.90
59961;DHT22;55902;-37.980;-63.602;2023-07-20T01:02:07;8.80;91.30
59961;DHT22;55902;-37.980;-63.602;2023-07-20T01:04:35;8.70;91.30
59961;DHT22;55902;-37.980;-63.602;2023-07-20T01:10:40;8.60;91.60
59961;DHT22;55902;-37.980;-63.602;2023-07-20T01:13:07;8.50;91.90
59961;DHT22;55902;-37.980;-63.602;2023-07-20T01:15:39;8.40;92.10
59961;DHT22;55902;-37.980;-63.602;2023-07-20T01:18:07;8.30;92.40
59961;DHT22;55902;-37.980;-63.602;2023-07-20T01:20:35;8.30;92.70
59961;DHT22;55902;-37.980;-63.602;2023-07-20T01:31:42;8.10;93.30
59961;DHT22;55902;-37.980;-63.602;2023-07-20T01:34:12;8.10;93.50
59961;DHT22;55902;-37.980;-63.602;2023-07-20T01:36:43;8.00;93.70
59961;DHT22;55902;-37.980;-63.602;2023-07-20T01:39:11;8.00;93.80
59961;DHT22;55902;-37.980;-63.602;2023-07-20T01:41:39;7.90;93.90
59961;DHT22;55902;-37.980;-63.602;2023-07-20T01:44:06;7.90;94.00
59961;DHT22;55902;-37.980;-63.602;2023-07-20T01:46:33;7.90;94.40
59961;DHT22;55902;-37.980;-63.602;2023-07-20T01:49:00;7.80;94.50
59961;DHT22;55902;-37.980;-63.602;2023-07-20T01:51:27;7.70;94.60
59961;DHT22;55902;-37.980;-63.602;2023-07-20T01:53:54;7.70;94.70
59961;DHT22;55902;-37.980;-63.602;2023-07-20T01:56:25;7.70;94.90
59961;DHT22;55902;-37.980;-63.602;2023-07-20T01:58:52;7.60;95.10
59961;DHT22;55902;-37.980;-63.602;2023-07-20T02:01:19;7.60;95.10
59961;DHT22;55902;-37.980;-63.602;2023-07-20T02:03:46;7.50;95.40
59961;DHT22;55902;-37.980;-63.602;2023-07-20T02:06:13;7.50;95.40
59961;DHT22;55902;-37.980;-63.602;2023-07-20T02:08:40;7.40;95.60
59961;DHT22;55902;-37.980;-63.602;2023-07-20T02:11:07;7.40;95.60
59961;DHT22;55902;-37.980;-63.602;2023-07-20T02:13:35;7.40;95.70
59961;DHT22;55902;-37.980;-63.602;2023-07-20T02:16:02;7.40;95.80
59961;DHT22;55902;-37.980;-63.602;2023-07-20T02:18:29;7.30;96.10
59961;DHT22;55902;-37.980;-63.602;2023-07-20T02:20:59;7.30;96.10
59961;DHT22;55902;-37.980;-63.602;2023-07-20T02:23:26;7.20;96.20
59961;DHT22;55902;-37.980;-63.602;2023-07-20T02:25:53;7.20;96.40
59961;DHT22;55902;-37.980;-63.602;2023-07-20T02:28:20;7.10;96.60
59961;DHT22;55902;-37.980;-63.602;2023-07-20T02:30:47;7.10;96.80
59961;DHT22;55902;-37.980;-63.602;2023-07-20T02:33:15;7.00;97.00
59961;DHT22;55902;-37.980;-63.602;2023-07-20T02:35:44;7.00;97.10
59961;DHT22;55902;-37.980;-63.602;2023-07-20T02:41:34;6.90;97.40
59961;DHT22;55902;-37.980;-63.602;2023-07-20T02:58:48;6.60;98.20
59961;DHT22;55902;-37.980;-63.602;2023-07-20T03:01:16;6.50;98.20
59961;DHT22;55902;-37.980;-63.602;2023-07-20T03:03:43;6.40;98.30
59961;DHT22;55902;-37.980;-63.602;2023-07-20T03:06:14;6.40;98.40
59961;DHT22;55902;-37.980;-63.602;2023-07-20T03:08:42;6.40;98.40
59961;DHT22;55902;-37.980;-63.602;2023-07-20T03:11:15;6.30;98.50
59961;DHT22;55902;-37.980;-63.602;2023-07-20T03:13:43;6.30;98.70
59961;DHT22;55902;-37.980;-63.602;2023-07-20T03:16:12;6.30;98.80
59961;DHT22;55902;-37.980;-63.602;2023-07-20T03:18:41;6.30;98.80
59961;DHT22;55902;-37.980;-63.602;2023-07-20T03:21:09;6.30;99.10
59961;DHT22;55902;-37.980;-63.602;2023-07-20T03:23:40;6.20;99.00
59961;DHT22;55902;-37.980;-63.602;2023-07-20T03:26:08;6.30;99.00
59961;DHT22;55902;-37.980;-63.602;2023-07-20T03:28:36;6.20;99.00
59961;DHT22;55902;-37.980;-63.602;2023-07-20T03:31:04;6.20;99.00
59961;DHT22;55902;-37.980;-63.602;2023-07-20T03:33:35;6.20;99.20
59961;DHT22;55902;-37.980;-63.602;2023-07-20T03:36:03;6.20;99.10
59961;DHT22;55902;-37.980;-63.602;2023-07-20T03:38:30;6.20;99.10
59961;DHT22;55902;-37.980;-63.602;2023-07-20T03:40:59;6.20;99.50
59961;DHT22;55902;-37.980;-63.602;2023-07-20T03:43:27;6.20;99.40
59961;DHT22;55902;-37.980;-63.602;2023-07-20T03:45:55;6.20;99.40
59961;DHT22;55902;-37.980;-63.602;2023-07-20T03:48:25;6.20;99.60
59961;DHT22;55902;-37.980;-63.602;2023-07-20T03:50:53;6.10;99.90
59961;DHT22;55902;-37.980;-63.602;2023-07-20T03:53:20;6.20;99.70
59961;DHT22;55902;-37.980;-63.602;2023-07-20T03:55:49;6.20;99.90
59961;DHT22;55902;-37.980;-63.602;2023-07-20T03:58:17;6.20;99.90
59961;DHT22;55902;-37.980;-63.602;2023-07-20T04:00:46;6.10;99.90
59961;DHT22;55902;-37.980;-63.602;2023-07-20T04:03:14;6.10;99.90
59961;DHT22;55902;-37.980;-63.602;2023-07-20T04:05:42;6.10;99.90
59961;DHT22;55902;-37.980;-63.602;2023-07-20T04:08:10;6.10;99.90
59961;DHT22;55902;-37.980;-63.602;2023-07-20T04:10:37;6.00;99.90
59961;DHT22;55902;-37.980;-63.602;2023-07-20T04:13:05;6.00;99.90
59961;DHT22;55902;-37.980;-63.602;2023-07-20T04:15:33;6.10;99.90
59961;DHT22;55902;-37.980;-63.602;2023-07-20T04:18:00;6.00;99.90
59961;DHT22;55902;-37.980;-63.602;2023-07-20T04:20:27;6.00;99.90
59961;DHT22;55902;-37.980;-63.602;2023-07-20T04:22:54;6.00;99.90
59961;DHT22;55902;-37.980;-63.602;2023-07-20T04:25:21;6.00;99.90
59961;DHT22;55902;-37.980;-63.602;2023-07-20T04:27:48;6.00;99.90
59961;DHT22;55902;-37.980;-63.602;2023-07-20T04:30:17;6.00;99.90
59961;DHT22;55902;-37.980;-63.602;2023-07-20T04:32:49;6.00;99.90
59961;DHT22;55902;-37.980;-63.602;2023-07-20T04:38:38;6.00;99.90
59961;DHT22;55902;-37.980;-63.602;2023-07-20T04:41:05;6.00;99.90
59961;DHT22;55902;-37.980;-63.602;2023-07-20T04:43:33;6.00;99.90
59961;DHT22;55902;-37.980;-63.602;2023-07-20T04:46:00;6.00;99.90
59961;DHT22;55902;-37.980;-63.602;2023-07-20T04:48:27;6.00;99.90
59961;DHT22;55902;-37.980;-63.602;2023-07-20T04:50:54;6.00;99.90
59961;DHT22;55902;-37.980;-63.602;2023-07-20T04:53:23;6.00;99.90
59961;DHT22;55902;-37.980;-63.602;2023-07-20T04:55:51;6.00;99.90
59961;DHT22;55902;-37.980;-63.602;2023-07-20T04:58:19;5.90;99.90
59961;DHT22;55902;-37.980;-63.602;2023-07-20T05:00:47;6.00;99.90
59961;DHT22;55902;-37.980;-63.602;2023-07-20T05:03:14;6.00;99.90
59961;DHT22;55902;-37.980;-63.602;2023-07-20T05:05:41;6.00;99.90
59961;DHT22;55902;-37.980;-63.602;2023-07-20T05:08:08;6.00;99.90
59961;DHT22;55902;-37.980;-63.602;2023-07-20T05:10:35;6.00;99.90
59961;DHT22;55902;-37.980;-63.602;2023-07-20T05:13:02;6.00;99.90
59961;DHT22;55902;-37.980;-63.602;2023-07-20T05:15:29;6.00;99.90
59961;DHT22;55902;-37.980;-63.602;2023-07-20T05:17:56;6.00;99.90
59961;DHT22;55902;-37.980;-63.602;2023-07-20T05:20:23;6.00;99.90
59961;DHT22;55902;-37.980;-63.602;2023-07-20T05:22:50;6.00;99.90
59961;DHT22;55902;-37.980;-63.602;2023-07-20T05:25:21;6.00;99.90
59961;DHT22;55902;-37.980;-63.602;2023-07-20T05:27:49;6.00;99.90
59961;DHT22;55902;-37.980;-63.602;2023-07-20T05:30:16;6.00;99.90
59961;DHT22;55902;-37.980;-63.602;2023-07-20T05:32:44;6.00;99.90
59961;DHT22;55902;-37.980;-63.602;2023-07-20T05:35:20;5.90;99.90
59961;DHT22;55902;-37.980;-63.602;2023-07-20T05:37:48;5.90;99.90
59961;DHT22;55902;-37.980;-63.602;2023-07-20T05:40:15;6.00;99.90
59961;DHT22;55902;-37.980;-63.602;2023-07-20T05:42:46;6.00;99.90
59961;DHT22;55902;-37.980;-63.602;2023-07-20T05:45:15;6.00;99.90
59961;DHT22;55902;-37.980;-63.602;2023-07-20T05:47:42;6.00;99.90
59961;DHT22;55902;-37.980;-63.602;2023-07-20T05:50:10;6.00;99.90
59961;DHT22;55902;-37.980;-63.602;2023-07-20T05:52:37;6.00;99.90
59961;DHT22;55902;-37.980;-63.602;2023-07-20T05:55:06;6.00;99.90
59961;DHT22;55902;-37.980;-63.602;2023-07-20T05:57:33;6.00;99.90
59961;DHT22;55902;-37.980;-63.602;2023-07-20T06:00:01;6.10;99.90
59961;DHT22;55902;-37.980;-63.602;2023-07-20T06:02:29;6.10;99.90
59961;DHT22;55902;-37.980;-63.602;2023-07-20T06:04:56;6.10;99.90
59961;DHT22;55902;-37.980;-63.602;2023-07-20T06:17:29;6.20;99.90
59961;DHT22;55902;-37.980;-63.602;2023-07-20T06:19:56;6.10;99.90
59961;DHT22;55902;-37.980;-63.602;2023-07-20T06:22:23;6.20;99.90
59961;DHT22;55902;-37.980;-63.602;2023-07-20T06:24:50;6.20;99.90
59961;DHT22;55902;-37.980;-63.602;2023-07-20T06:27:17;6.20;99.90
59961;DHT22;55902;-37.980;-63.602;2023-07-20T06:29:44;6.10;99.90
59961;DHT22;55902;-37.980;-63.602;2023-07-20T06:32:11;6.10;99.90
59961;DHT22;55902;-37.980;-63.602;2023-07-20T06:34:40;6.10;99.90
59961;DHT22;55902;-37.980;-63.602;2023-07-20T06:37:07;6.10;99.90
59961;DHT22;55902;-37.980;-63.602;2023-07-20T06:39:34;6.10;99.90
59961;DHT22;55902;-37.980;-63.602;2023-07-20T06:42:01;6.10;99.90
59961;DHT22;55902;-37.980;-63.602;2023-07-20T06:44:28;6.00;99.90
59961;DHT22;55902;-37.980;-63.602;2023-07-20T06:46:55;6.00;99.90
59961;DHT22;55902;-37.980;-63.602;2023-07-20T06:49:26;6.00;99.90
59961;DHT22;55902;-37.980;-63.602;2023-07-20T06:51:54;6.00;99.90
59961;DHT22;55902;-37.980;-63.602;2023-07-20T06:54:21;5.90;99.90
59961;DHT22;55902;-37.980;-63.602;2023-07-20T06:56:48;5.90;99.90
59961;DHT22;55902;-37.980;-63.602;2023-07-20T06:59:15;5.90;99.90
59961;DHT22;55902;-37.980;-63.602;2023-07-20T07:01:42;5.90;99.90
59961;DHT22;55902;-37.980;-63.602;2023-07-20T07:04:09;5.80;99.90
59961;DHT22;55902;-37.980;-63.602;2023-07-20T07:06:39;5.80;99.90
59961;DHT22;55902;-37.980;-63.602;2023-07-20T07:09:06;5.80;99.90
59961;DHT22;55902;-37.980;-63.602;2023-07-20T07:11:34;5.80;99.90
59961;DHT22;55902;-37.980;-63.602;2023-07-20T07:14:01;5.80;99.90
59961;DHT22;55902;-37.980;-63.602;2023-07-20T07:16:28;5.70;99.90
59961;DHT22;55902;-37.980;-63.602;2023-07-20T07:18:55;5.70;99.90
59961;DHT22;55902;-37.980;-63.602;2023-07-20T07:21:22;5.60;99.90
59961;DHT22;55902;-37.980;-63.602;2023-07-20T07:23:49;5.70;99.90
59961;DHT22;55902;-37.980;-63.602;2023-07-20T07:26:19;5.60;99.90
59961;DHT22;55902;-37.980;-63.602;2023-07-20T07:28:49;5.60;99.90
59961;DHT22;55902;-37.980;-63.602;2023-07-20T07:31:16;5.60;99.90
59961;DHT22;55902;-37.980;-63.602;2023-07-20T07:33:43;5.50;99.90
59961;DHT22;55902;-37.980;-63.602;2023-07-20T07:36:13;5.50;99.90
59961;DHT22;55902;-37.980;-63.602;2023-07-20T07:38:40;5.50;99.90
59961;DHT22;55902;-37.980;-63.602;2023-07-20T07:41:07;5.40;99.90
59961;DHT22;55902;-37.980;-63.602;2023-07-20T07:43:34;5.40;99.90
59961;DHT22;55902;-37.980;-63.602;2023-07-20T07:46:01;5.30;99.90
59961;DHT22;55902;-37.980;-63.602;2023-07-20T07:48:28;5.30;99.90
59961;DHT22;55902;-37.980;-63.602;2023-07-20T07:50:55;5.30;99.90
59961;DHT22;55902;-37.980;-63.602;2023-07-20T07:53:22;5.30;99.90
59961;DHT22;55902;-37.980;-63.602;2023-07-20T07:55:52;5.20;99.90
59961;DHT22;55902;-37.980;-63.602;2023-07-20T07:58:19;5.20;99.90
59961;DHT22;55902;-37.980;-63.602;2023-07-20T08:00:46;5.20;99.90
59961;DHT22;55902;-37.980;-63.602;2023-07-20T08:03:14;5.10;99.90
59961;DHT22;55902;-37.980;-63.602;2023-07-20T08:05:41;5.10;99.90
59961;DHT22;55902;-37.980;-63.602;2023-07-20T08:08:08;5.10;99.90
59961;DHT22;55902;-37.980;-63.602;2023-07-20T08:10:35;5.10;99.90
59961;DHT22;55902;-37.980;-63.602;2023-07-20T08:13:02;5.10;99.90
59961;DHT22;55902;-37.980;-63.602;2023-07-20T08:15:29;5.00;99.90
59961;DHT22;55902;-37.980;-63.602;2023-07-20T08:17:56;5.00;99.90
59961;DHT22;55902;-37.980;-63.602;2023-07-20T08:20:23;5.00;99.90
59961;DHT22;55902;-37.980;-63.602;2023-07-20T08:22:56;4.90;99.90
59961;DHT22;55902;-37.980;-63.602;2023-07-20T08:25:24;4.90;99.90
59961;DHT22;55902;-37.980;-63.602;2023-07-20T08:27:51;4.90;99.90
59961;DHT22;55902;-37.980;-63.602;2023-07-20T08:30:21;4.90;99.90
59961;DHT22;55902;-37.980;-63.602;2023-07-20T08:32:49;4.90;99.90
59961;DHT22;55902;-37.980;-63.602;2023-07-20T08:35:17;4.90;99.90
59961;DHT22;55902;-37.980;-63.602;2023-07-20T08:37:44;4.80;99.90
59961;DHT22;55902;-37.980;-63.602;2023-07-20T08:40:13;4.80;99.90
59961;DHT22;55902;-37.980;-63.602;2023-07-20T08:42:41;4.80;99.90
59961;DHT22;55902;-37.980;-63.602;2023-07-20T08:45:08;4.80;99.90
59961;DHT22;55902;-37.980;-63.602;2023-07-20T08:47:36;4.80;99.90
59961;DHT22;55902;-37.980;-63.602;2023-07-20T08:50:04;4.80;99.90
59961;DHT22;55902;-37.980;-63.602;2023-07-20T08:52:34;4.80;99.90
59961;DHT22;55902;-37.980;-63.602;2023-07-20T08:55:01;4.80;99.90
59961;DHT22;55902;-37.980;-63.602;2023-07-20T08:57:33;4.80;99.90
59961;DHT22;55902;-37.980;-63.602;2023-07-20T09:00:03;4.80;99.90
59961;DHT22;55902;-37.980;-63.602;2023-07-20T09:02:39;4.80;99.90
59961;DHT22;55902;-37.980;-63.602;2023-07-20T09:05:09;4.80;99.90
59961;DHT22;55902;-37.980;-63.602;2023-07-20T09:07:36;4.70;99.90
59961;DHT22;55902;-37.980;-63.602;2023-07-20T09:10:04;4.70;99.90
59961;DHT22;55902;-37.980;-63.602;2023-07-20T09:12:36;4.70;99.90
59961;DHT22;55902;-37.980;-63.602;2023-07-20T09:15:04;4.70;99.90
59961;DHT22;55902;-37.980;-63.602;2023-07-20T09:17:32;4.70;99.90
59961;DHT22;55902;-37.980;-63.602;2023-07-20T09:20:03;4.70;99.90
59961;DHT22;55902;-37.980;-63.602;2023-07-20T09:22:37;4.70;99.90
59961;DHT22;55902;-37.980;-63.602;2023-07-20T09:25:14;4.70;99.90
59961;DHT22;55902;-37.980;-63.602;2023-07-20T09:27:42;4.70;99.90
59961;DHT22;55902;-37.980;-63.602;2023-07-20T09:30:10;4.60;99.90
59961;DHT22;55902;-37.980;-63.602;2023-07-20T09:32:49;4.60;99.90
59961;DHT22;55902;-37.980;-63.602;2023-07-20T09:35:21;4.60;99.90
59961;DHT22;55902;-37.980;-63.602;2023-07-20T09:37:53;4.60;99.90
59961;DHT22;55902;-37.980;-63.602;2023-07-20T09:40:21;4.60;99.90
59961;DHT22;55902;-37.980;-63.602;2023-07-20T09:42:48;4.60;99.90
59961;DHT22;55902;-37.980;-63.602;2023-07-20T09:45:18;4.50;99.90
59961;DHT22;55902;-37.980;-63.602;2023-07-20T09:47:45;4.50;99.90
59961;DHT22;55902;-37.980;-63.602;2023-07-20T09:50:13;4.50;99.90
59961;DHT22;55902;-37.980;-63.602;2023-07-20T09:52:41;4.50;99.90
59961;DHT22;55902;-37.980;-63.602;2023-07-20T09:55:12;4.50;99.90
59961;DHT22;55902;-37.980;-63.602;2023-07-20T09:57:39;4.60;99.90
59961;DHT22;55902;-37.980;-63.602;2023-07-20T10:00:08;4.50;99.90
59961;DHT22;55902;-37.980;-63.602;2023-07-20T10:02:46;4.50;99.90
59961;DHT22;55902;-37.980;-63.602;2023-07-20T10:05:14;4.40;99.90
59961;DHT22;55902;-37.980;-63.602;2023-07-20T10:07:49;4.50;99.90
59961;DHT22;55902;-37.980;-63.602;2023-07-20T10:10:17;4.50;99.90
59961;DHT22;55902;-37.980;-63.602;2023-07-20T10:12:50;4.50;99.90
59961;DHT22;55902;-37.980;-63.602;2023-07-20T10:15:32;4.50;99.90
59961;DHT22;55902;-37.980;-63.602;2023-07-20T10:20:36;4.40;99.90
59961;DHT22;55902;-37.980;-63.602;2023-07-20T10:23:05;4.40;99.90
59961;DHT22;55902;-37.980;-63.602;2023-07-20T10:25:32;4.40;99.90
59961;DHT22;55902;-37.980;-63.602;2023-07-20T10:38:10;4.40;99.90
59961;DHT22;55902;-37.980;-63.602;2023-07-20T10:40:40;4.40;99.90
59961;DHT22;55902;-37.980;-63.602;2023-07-20T10:43:09;4.40;99.90
59961;DHT22;55902;-37.980;-63.602;2023-07-20T10:45:54;4.40;99.90
59961;DHT22;55902;-37.980;-63.602;2023-07-20T10:48:25;4.40;99.90
59961;DHT22;55902;-37.980;-63.602;2023-07-20T10:51:19;4.40;99.90
59961;DHT22;55902;-37.980;-63.602;2023-07-20T10:53:48;4.40;99.90
59961;DHT22;55902;-37.980;-63.602;2023-07-20T10:56:36;4.30;99.90
59961;DHT22;55902;-37.980;-63.602;2023-07-20T10:59:18;4.30;99.90
59961;DHT22;55902;-37.980;-63.602;2023-07-20T11:01:48;4.30;99.90
59961;DHT22;55902;-37.980;-63.602;2023-07-20T11:04:18;4.30;99.90
59961;DHT22;55902;-37.980;-63.602;2023-07-20T11:06:46;4.30;99.90
59961;DHT22;55902;-37.980;-63.602;2023-07-20T11:09:23;4.20;99.90
59961;DHT22;55902;-37.980;-63.602;2023-07-20T11:12:09;4.20;99.90
59961;DHT22;55902;-37.980;-63.602;2023-07-20T11:14:41;4.20;99.90
59961;DHT22;55902;-37.980;-63.602;2023-07-20T11:17:13;4.20;99.90
59961;DHT22;55902;-37.980;-63.602;2023-07-20T11:19:40;4.10;99.90
59961;DHT22;55902;-37.980;-63.602;2023-07-20T11:22:11;4.10;99.90
59961;DHT22;55902;-37.980;-63.602;2023-07-20T11:24:39;4.10;99.90
59961;DHT22;55902;-37.980;-63.602;2023-07-20T11:27:07;4.10;99.90
59961;DHT22;55902;-37.980;-63.602;2023-07-20T11:29:35;4.10;99.90
59961;DHT22;55902;-37.980;-63.602;2023-07-20T11:32:03;4.00;99.90
59961;DHT22;55902;-37.980;-63.602;2023-07-20T11:34:31;4.00;99.90
59961;DHT22;55902;-37.980;-63.602;2023-07-20T11:36:59;4.00;99.90
59961;DHT22;55902;-37.980;-63.602;2023-07-20T11:39:27;4.00;99.90
59961;DHT22;55902;-37.980;-63.602;2023-07-20T11:41:55;4.00;99.90
59961;DHT22;55902;-37.980;-63.602;2023-07-20T11:44:24;4.00;99.90
59961;DHT22;55902;-37.980;-63.602;2023-07-20T11:47:07;4.00;99.90
59961;DHT22;55902;-37.980;-63.602;2023-07-20T11:49:39;4.00;99.90
59961;DHT22;55902;-37.980;-63.602;2023-07-20T11:52:11;4.00;99.90
59961;DHT22;55902;-37.980;-63.602;2023-07-20T11:54:40;4.00;99.90
59961;DHT22;55902;-37.980;-63.602;2023-07-20T11:57:08;4.10;99.90
59961;DHT22;55902;-37.980;-63.602;2023-07-20T11:59:53;4.10;99.90
59961;DHT22;55902;-37.980;-63.602;2023-07-20T12:02:24;4.10;99.90
59961;DHT22;55902;-37.980;-63.602;2023-07-20T12:04:57;4.20;99.90
59961;DHT22;55902;-37.980;-63.602;2023-07-20T12:07:28;4.20;99.90
59961;DHT22;55902;-37.980;-63.602;2023-07-20T12:10:06;4.20;99.90
59961;DHT22;55902;-37.980;-63.602;2023-07-20T12:12:34;4.30;99.90
59961;DHT22;55902;-37.980;-63.602;2023-07-20T12:15:19;4.30;99.90
59961;DHT22;55902;-37.980;-63.602;2023-07-20T12:17:50;4.40;99.90
59961;DHT22;55902;-37.980;-63.602;2023-07-20T12:22:55;4.60;99.90
59961;DHT22;55902;-37.980;-63.602;2023-07-20T12:25:22;4.60;99.90
59961;DHT22;55902;-37.980;-63.602;2023-07-20T12:27:49;4.70;99.90
59961;DHT22;55902;-37.980;-63.602;2023-07-20T12:30:17;4.70;99.90
59961;DHT22;55902;-37.980;-63.602;2023-07-20T12:32:44;4.80;99.90
59961;DHT22;55902;-37.980;-63.602;2023-07-20T12:35:11;4.90;99.90
59961;DHT22;55902;-37.980;-63.602;2023-07-20T12:37:38;5.00;99.90
59961;DHT22;55902;-37.980;-63.602;2023-07-20T12:40:06;5.10;99.90
59961;DHT22;55902;-37.980;-63.602;2023-07-20T12:42:37;5.10;99.90
59961;DHT22;55902;-37.980;-63.602;2023-07-20T12:45:04;5.20;99.90
59961;DHT22;55902;-37.980;-63.602;2023-07-20T12:47:35;5.20;99.90
59961;DHT22;55902;-37.980;-63.602;2023-07-20T12:50:02;5.20;99.90
59961;DHT22;55902;-37.980;-63.602;2023-07-20T12:52:35;5.30;99.90
59961;DHT22;55902;-37.980;-63.602;2023-07-20T12:55:03;5.30;99.90
59961;DHT22;55902;-37.980;-63.602;2023-07-20T12:57:35;5.40;99.90
59961;DHT22;55902;-37.980;-63.602;2023-07-20T13:00:04;5.60;99.90
59961;DHT22;55902;-37.980;-63.602;2023-07-20T13:02:33;5.80;99.90
59961;DHT22;55902;-37.980;-63.602;2023-07-20T13:05:00;6.10;99.90
59961;DHT22;55902;-37.980;-63.602;2023-07-20T13:10:02;6.90;99.90
59961;DHT22;55902;-37.980;-63.602;2023-07-20T13:12:31;7.30;99.90
59961;DHT22;55902;-37.980;-63.602;2023-07-20T13:14:59;7.70;99.90
59961;DHT22;55902;-37.980;-63.602;2023-07-20T13:17:30;7.90;99.90
59961;DHT22;55902;-37.980;-63.602;2023-07-20T13:19:57;8.30;99.90
59961;DHT22;55902;-37.980;-63.602;2023-07-20T13:22:24;8.50;99.90
59961;DHT22;55902;-37.980;-63.602;2023-07-20T13:24:52;8.80;99.90
59961;DHT22;55902;-37.980;-63.602;2023-07-20T13:27:22;9.00;99.90
59961;DHT22;55902;-37.980;-63.602;2023-07-20T13:29:53;9.10;99.90
59961;DHT22;55902;-37.980;-63.602;2023-07-20T13:32:21;9.20;99.90
59961;DHT22;55902;-37.980;-63.602;2023-07-20T13:34:49;9.30;99.90
59961;DHT22;55902;-37.980;-63.602;2023-07-20T13:37:16;9.30;99.90
59961;DHT22;55902;-37.980;-63.602;2023-07-20T13:39:50;9.50;99.90
59961;DHT22;55902;-37.980;-63.602;2023-07-20T13:42:17;9.60;99.90
59961;DHT22;55902;-37.980;-63.602;2023-07-20T13:44:44;9.80;99.90
59961;DHT22;55902;-37.980;-63.602;2023-07-20T13:47:12;9.90;99.90
59961;DHT22;55902;-37.980;-63.602;2023-07-20T13:49:39;9.90;99.90
59961;DHT22;55902;-37.980;-63.602;2023-07-20T13:52:07;10.00;99.90
59961;DHT22;55902;-37.980;-63.602;2023-07-20T13:54:34;10.10;99.90
59961;DHT22;55902;-37.980;-63.602;2023-07-20T13:57:01;10.20;99.90
59961;DHT22;55902;-37.980;-63.602;2023-07-20T13:59:29;10.40;99.90
59961;DHT22;55902;-37.980;-63.602;2023-07-20T14:01:56;10.40;99.90
59961;DHT22;55902;-37.980;-63.602;2023-07-20T14:04:23;10.50;99.90
59961;DHT22;55902;-37.980;-63.602;2023-07-20T14:06:50;10.60;99.90
59961;DHT22;55902;-37.980;-63.602;2023-07-20T14:09:17;10.60;99.90
59961;DHT22;55902;-37.980;-63.602;2023-07-20T14:11:46;10.80;99.90
59961;DHT22;55902;-37.980;-63.602;2023-07-20T14:14:34;11.00;99.90
59961;DHT22;55902;-37.980;-63.602;2023-07-20T14:17:02;11.10;99.90
59961;DHT22;55902;-37.980;-63.602;2023-07-20T14:19:29;11.20;99.90
59961;DHT22;55902;-37.980;-63.602;2023-07-20T14:21:57;11.20;99.90
59961;DHT22;55902;-37.980;-63.602;2023-07-20T14:24:28;11.30;99.90
59961;DHT22;55902;-37.980;-63.602;2023-07-20T14:26:55;11.60;99.90
59961;DHT22;55902;-37.980;-63.602;2023-07-20T14:29:22;11.80;99.90
59961;DHT22;55902;-37.980;-63.602;2023-07-20T14:31:50;12.00;99.90
59961;DHT22;55902;-37.980;-63.602;2023-07-20T14:34:18;12.30;99.90
59961;DHT22;55902;-37.980;-63.602;2023-07-20T14:36:46;12.30;99.20
59961;DHT22;55902;-37.980;-63.602;2023-07-20T14:39:13;12.30;99.30
59961;DHT22;55902;-37.980;-63.602;2023-07-20T14:41:40;12.30;99.80
59961;DHT22;55902;-37.980;-63.602;2023-07-20T14:44:07;12.20;99.20
59961;DHT22;55902;-37.980;-63.602;2023-07-20T14:46:37;12.20;99.30
59961;DHT22;55902;-37.980;-63.602;2023-07-20T14:49:04;12.20;99.20
59961;DHT22;55902;-37.980;-63.602;2023-07-20T14:51:31;12.40;99.40
59961;DHT22;55902;-37.980;-63.602;2023-07-20T14:54:00;12.70;99.10
59961;DHT22;55902;-37.980;-63.602;2023-07-20T14:56:28;12.80;98.80
59961;DHT22;55902;-37.980;-63.602;2023-07-20T14:58:56;12.90;98.00
59961;DHT22;55902;-37.980;-63.602;2023-07-20T15:01:24;12.90;97.50
59961;DHT22;55902;-37.980;-63.602;2023-07-20T15:03:51;13.10;97.70
59961;DHT22;55902;-37.980;-63.602;2023-07-20T15:06:20;13.40;97.60
59961;DHT22;55902;-37.980;-63.602;2023-07-20T15:08:48;13.80;96.90
59961;DHT22;55902;-37.980;-63.602;2023-07-20T15:11:15;14.10;96.50
59961;DHT22;55902;-37.980;-63.602;2023-07-20T15:13:42;14.00;95.50
59961;DHT22;55902;-37.980;-63.602;2023-07-20T15:16:12;14.00;96.00
59961;DHT22;55902;-37.980;-63.602;2023-07-20T15:18:40;14.10;95.60
59961;DHT22;55902;-37.980;-63.602;2023-07-20T15:21:07;14.20;95.40
59961;DHT22;55902;-37.980;-63.602;2023-07-20T15:23:36;14.40;95.30
59961;DHT22;55902;-37.980;-63.602;2023-07-20T15:26:03;14.30;95.00
59961;DHT22;55902;-37.980;-63.602;2023-07-20T15:28:30;14.50;94.20
59961;DHT22;55902;-37.980;-63.602;2023-07-20T15:31:04;14.70;94.10
59961;DHT22;55902;-37.980;-63.602;2023-07-20T15:33:32;14.70;93.40
59961;DHT22;55902;-37.980;-63.602;2023-07-20T15:36:20;14.90;93.40
59961;DHT22;55902;-37.980;-63.602;2023-07-20T15:38:47;15.00;92.90
59961;DHT22;55902;-37.980;-63.602;2023-07-20T15:41:14;15.30;92.50
59961;DHT22;55902;-37.980;-63.602;2023-07-20T15:43:44;15.20;91.50
59961;DHT22;55902;-37.980;-63.602;2023-07-20T15:48:48;15.30;91.50
59961;DHT22;55902;-37.980;-63.602;2023-07-20T15:51:15;15.50;91.30
59961;DHT22;55902;-37.980;-63.602;2023-07-20T15:53:42;15.60;90.70
59961;DHT22;55902;-37.980;-63.602;2023-07-20T15:56:10;15.50;90.40
59961;DHT22;55902;-37.980;-63.602;2023-07-20T15:58:37;15.50;90.80
59961;DHT22;55902;-37.980;-63.602;2023-07-20T16:01:04;15.50;90.90
59961;DHT22;55902;-37.980;-63.602;2023-07-20T16:03:32;15.80;91.00
59961;DHT22;55902;-37.980;-63.602;2023-07-20T16:05:59;16.20;90.00
59961;DHT22;55902;-37.980;-63.602;2023-07-20T16:08:27;16.30;88.40
59961;DHT22;55902;-37.980;-63.602;2023-07-20T16:10:54;16.30;88.60
59961;DHT22;55902;-37.980;-63.602;2023-07-20T16:13:24;16.30;88.80